Flight Track Log - Related Links

Times and Time Zones

All times are in EDT time to prevent confusion due to time zone crossing. See the AAY883 flight status page for this flight to view local times or setup timezone preferences in your user account.

Time Position Orientation Groundspeed Altitude Reporting Facility
EDT Latitude Longitude Course Direction KTS MPH feet Rate Location/Type
Sun 06:39:01 PM 42.8161 -85.5072 173° South 195 224 2,700  Level Chicago Center
Sun 06:40:03 PM 42.7467 -85.4967 174° South 248 285 4,300 2,274 Climbing Chicago Center
Sun 06:41:05 PM 42.6703 -85.4858 174° South 272 313 7,400 2,855 Climbing Chicago Center
Sun 06:42:07 PM 42.5736 -85.4686 173° South 288 331 10,200 2,032 Climbing Chicago Center
Sun 06:43:09 PM 42.4806 -85.4522 173° South 329 379 11,600 1,355 Climbing Chicago Center
Sun 06:44:00 PM 42.2397 -85.3759 173° South  Level Estimated
Sun 06:44:11 PM 42.3750 -85.4347 173° South 376 433 13,000  Level Chicago Center
Sun 06:45:13 PM 42.2619 -85.4156 173° South 402 463 15,200 2,081 Climbing Chicago Center
Sun 06:46:15 PM 42.1461 -85.3958 173° South 415 478 17,300 2,032 Climbing Chicago Center
Sun 06:47:17 PM 42.0261 -85.4031 183° South 428 493 19,400 1,935 Climbing Chicago Center
Sun 06:48:19 PM 41.8911 -85.4083 182° South 434 499 21,300 1,597 Climbing Chicago Center
Sun 06:49:21 PM 41.7650 -85.4144 182° South 447 514 22,700 1,500 Climbing Chicago Center
Sun 06:50:23 PM 41.6225 -85.4208 182° South 459 528 24,400 1,113 Climbing Chicago Center
Sun 06:51:25 PM 41.4858 -85.4267 182° South 477 549 25,000 290 Climbing Chicago Center
Sun 06:52:27 PM 41.3494 -85.4339 182° South 488 562 25,000 581 Level Chicago Center
Sun 06:53:29 PM 41.2147 -85.4419 183° South 487 560 26,200 1,210 Climbing Chicago Center
Sun 06:54:31 PM 41.0828 -85.4361 178° South 478 550 27,500 1,161 Climbing Chicago Center
Sun 06:55:33 PM 40.9225 -85.4150 174° South 484 557 28,600 726 Climbing Chicago Center
Sun 06:56:35 PM 40.7919 -85.3892 171° South 478 550 29,000 581 Climbing Chicago Center
Sun 06:57:37 PM 40.6600 -85.3700 174° South 477 549 29,800 919 Climbing Chicago Center
Sun 06:58:39 PM 40.5353 -85.3528 174° South 466 536 30,900 581 Climbing Chicago Center
Sun 06:59:41 PM 40.3831 -85.3347 175° South 465 535 31,000 53 Climbing Chicago Center
Sun 07:00:32 PM 40.2744 -85.3183 173° South 463 533 31,000 425 Level Indianapolis Center
Sun 07:01:34 PM 40.1442 -85.2978 173° South 464 534 31,800 629 Climbing Indianapolis Center
Sun 07:02:36 PM 40.0169 -85.2769 173° South 457 526 32,300 581 Climbing Indianapolis Center
Sun 07:03:38 PM 39.8917 -85.2575 173° South 451 519 33,000 339 Climbing Indianapolis Center
Sun 07:04:40 PM 39.7653 -85.2406 174° South 450 518 33,000  Level Indianapolis Center
Sun 07:05:42 PM 39.6400 -85.2253 175° South 449 517 33,000  Level Indianapolis Center
Sun 07:06:44 PM 39.5142 -85.2094 174° South 449 517 33,000  Level Indianapolis Center
Sun 07:07:46 PM 39.3697 -85.1861 173° South 445 512 33,000  Level Indianapolis Center
Sun 07:08:48 PM 39.2461 -85.1678 173° South 443 510 33,000  Level Indianapolis Center
Sun 07:09:50 PM 39.1233 -85.1508 174° South 440 506 33,000  Level Indianapolis Center
Sun 07:10:52 PM 39.0000 -85.1358 175° South 440 506 33,000  Level Indianapolis Center
Sun 07:11:54 PM 38.8778 -85.1181 174° South 438 504 33,000  Level Indianapolis Center
Sun 07:12:56 PM 38.7550 -85.1003 174° South 439 505 33,000  Level Indianapolis Center
Sun 07:13:58 PM 38.6208 -85.0825 174° South 437 503 33,000  Level Indianapolis Center
Sun 07:15:00 PM 38.5019 -85.0647 173° South 432 497 33,000  Level Indianapolis Center
Sun 07:16:02 PM 38.3825 -85.0481 174° South 429 494 33,000  Level Indianapolis Center
Sun 07:17:04 PM 38.2628 -85.0342 175° South 430 495 33,000  Level Indianapolis Center
Sun 07:18:06 PM 38.1244 -85.0164 174° South 428 493 33,000  Level Indianapolis Center
Sun 07:19:08 PM 38.0086 -84.9997 174° South 420 483 33,000  Level Indianapolis Center
Sun 07:20:10 PM 37.8922 -84.9811 173° South 421 484 33,000  Level Indianapolis Center
Sun 07:21:12 PM 37.7772 -84.9661 174° South 415 478 33,000  Level Indianapolis Center
Sun 07:22:13 PM 37.6628 -84.9508 174° South 413 475 33,000  Level Indianapolis Center
Sun 07:23:15 PM 37.5483 -84.9367 174° South 413 475 33,000  Level Indianapolis Center
Sun 07:24:17 PM 37.4164 -84.9194 174° South 407 468 33,000  Level Indianapolis Center
Sun 07:25:19 PM 37.3039 -84.9022 173° South 406 467 33,000  Level Indianapolis Center
Sun 07:26:21 PM 37.1917 -84.8878 174° South 403 464 33,000  Level Indianapolis Center
Sun 07:27:23 PM 37.0808 -84.8753 175° South 400 460 33,000  Level Indianapolis Center
Sun 07:28:25 PM 36.9519 -84.8569 174° South 404 465 33,000  Level Indianapolis Center
Sun 07:29:27 PM 36.8408 -84.8422 174° South 401 461 33,000  Level Indianapolis Center
Sun 07:30:28 PM 36.7294 -84.8267 174° South 401 461 33,000  Level Indianapolis Center
Sun 07:31:30 PM 36.6186 -84.8131 174° South 401 461 33,000  Level Indianapolis Center
Sun 07:32:32 PM 36.5075 -84.7997 174° South 400 460 33,000  Level Indianapolis Center
Sun 07:33:34 PM 36.3958 -84.7850 174° South 401 461 33,000  Level Indianapolis Center
Sun 07:34:36 PM 36.2831 -84.7692 174° South 406 467 33,000  Level Indianapolis Center
Sun 07:35:38 PM 36.1719 -84.7539 174° South 402 463 33,000  Level Indianapolis Center
Sun 07:36:19 PM 36.0772 -84.7453 176° South 406 467 33,000  Level Atlanta Center
Sun 07:37:19 PM 35.9667 -84.7289 173° South 406 467 33,000  Level Atlanta Center
Sun 07:38:19 PM 35.8500 -84.7125 174° South 406 467 33,000  Level Atlanta Center
Sun 07:39:19 PM 35.7375 -84.6989 174° South 406 467 33,000  Level Atlanta Center
Sun 07:40:19 PM 35.6206 -84.6850 174° South 411 473 33,000  Level Atlanta Center
Sun 07:41:19 PM 35.5269 -84.6717 173° South 416 479 33,000  Level Atlanta Center
Sun 07:42:19 PM 35.4039 -84.6578 175° South 416 479 33,000  Level Atlanta Center
Sun 07:43:19 PM 35.2850 -84.6442 175° South 421 484 33,000  Level Atlanta Center
Sun 07:44:19 PM 35.1703 -84.6308 175° South 421 484 33,000  Level Atlanta Center
Sun 07:45:19 PM 35.0533 -84.6147 174° South 426 490 33,000  Level Atlanta Center
Sun 07:46:19 PM 34.9389 -84.5986 173° South 421 484 33,000  Level Atlanta Center
Sun 07:47:19 PM 34.8242 -84.5853 175° South 421 484 33,000  Level Atlanta Center
Sun 07:48:19 PM 34.7072 -84.5744 176° South 421 484 33,000  Level Atlanta Center
Sun 07:49:19 PM 34.5947 -84.5561 172° South 421 484 33,000  Level Atlanta Center
Sun 07:50:19 PM 34.4778 -84.5428 175° South 420 483 33,000  Level Atlanta Center
Sun 07:51:19 PM 34.3589 -84.5244 173° South 426 490 33,000  Level Atlanta Center
Sun 07:52:19 PM 34.2317 -84.5086 174° South 426 490 33,000  Level Atlanta Center
Sun 07:53:19 PM 34.1064 -84.4878 172° South 426 490 33,000  Level Atlanta Center
Sun 07:54:19 PM 33.9961 -84.4297 156° South 434 499 33,000  Level Atlanta Center
Sun 07:55:19 PM 33.8856 -84.3692 156° South 433 498 33,000  Level Atlanta Center
Sun 07:56:19 PM 33.7731 -84.3061 155° Southeast 453 521 33,000  Level Atlanta Center
Sun 07:57:19 PM 33.6606 -84.2458 156° South 453 521 33,000  Level Atlanta Center
Sun 07:58:19 PM 33.5542 -84.2158 167° South 447 514 33,000  Level Atlanta Center
Sun 07:59:19 PM 33.4372 -84.2181 181° South 426 490 33,000  Level Atlanta Center
Sun 08:00:19 PM 33.3161 -84.2028 174° South 426 490 33,000  Level Atlanta Center
Sun 08:01:19 PM 33.1867 -84.1606 165° South 426 490 33,000  Level Atlanta Center
Sun 08:02:19 PM 33.0678 -84.1256 166° South 431 496 33,000  Level Atlanta Center
Sun 08:03:19 PM 32.9636 -84.0883 163° South 431 496 33,000  Level Atlanta Center
Sun 08:04:19 PM 32.8425 -84.0758 175° South 431 496 33,000  Level Atlanta Center
Sun 08:05:19 PM 32.7214 -84.0858 184° South 431 496 33,000  Level Atlanta Center
Sun 08:06:19 PM 32.6025 -84.1103 190° South 431 496 33,000  Level Atlanta Center
Sun 08:07:19 PM 32.4833 -84.1275 187° South 436 502 33,000  Level Atlanta Center
Sun 08:08:19 PM 32.3644 -84.1422 186° South 436 502 33,000  Level Atlanta Center
Sun 08:09:19 PM 32.2411 -84.1567 186° South 436 502 33,000  Level Atlanta Center
Sun 08:10:19 PM 32.1222 -84.1714 186° South 441 507 33,000  Level Atlanta Center
Sun 08:10:52 PM 32.0556 -84.1819 188° South 440 506 33,000  Level Jacksonville Center
Sun 08:11:52 PM 31.9364 -84.1975 186° South 434 499 33,000  Level Jacksonville Center
Sun 08:12:52 PM 31.8153 -84.2128 186° South 429 494 33,000  Level Jacksonville Center
Sun 08:13:52 PM 31.6939 -84.2283 186° South 435 501 33,000  Level Jacksonville Center
Sun 08:14:52 PM 31.5725 -84.2458 187° South 435 501 33,000  Level Jacksonville Center
Sun 08:15:52 PM 31.4492 -84.2611 186° South 442 509 33,000  Level Jacksonville Center
Sun 08:16:52 PM 31.3281 -84.2764 186° South 442 509 33,000  Level Jacksonville Center
Sun 08:17:52 PM 31.2067 -84.2942 187° South 447 514 33,000  Level Jacksonville Center
Sun 08:18:52 PM 31.0833 -84.3092 186° South 447 514 33,000  Level Jacksonville Center
Sun 08:19:52 PM 30.9642 -84.3219 185° South 447 514 33,000  Level Jacksonville Center
Sun 08:20:52 PM 30.8414 -84.2886 167° South 442 509 33,000  Level Jacksonville Center
Sun 08:21:52 PM 30.7228 -84.2411 161° South 447 514 33,000  Level Jacksonville Center
Sun 08:22:52 PM 30.6022 -84.1886 159° South 455 524 33,000 -250 Level Jacksonville Center
Sun 08:23:52 PM 30.4878 -84.1486 163° South 455 524 32,500 -850 Descending Jacksonville Center
Sun 08:24:52 PM 30.3672 -84.1036 162° South 455 524 31,300 -750 Descending Jacksonville Center
Sun 08:25:52 PM 30.2444 -84.0589 163° South 460 529 31,000 -150 Descending Jacksonville Center
Sun 08:26:52 PM 30.1239 -84.0117 161° South 460 529 31,000  Level Jacksonville Center
Sun 08:27:52 PM 30.0053 -83.9672 162° South 460 529 31,000  Level Jacksonville Center
Sun 08:28:52 PM 29.8867 -83.9228 162° South 460 529 31,000  Level Jacksonville Center
Sun 08:29:52 PM 29.7681 -83.8689 158° South 460 529 31,000  Level Jacksonville Center
Sun 08:30:52 PM 29.6578 -83.7983 151° Southeast 460 529 31,000  Level Jacksonville Center
Sun 08:31:52 PM 29.5497 -83.7233 149° Southeast 455 524 31,000 -500 Level Jacksonville Center
Sun 08:32:52 PM 29.4292 -83.6436 150° Southeast 455 524 30,000 -1,500 Descending Jacksonville Center
Sun 08:33:52 PM 29.3189 -83.5761 152° Southeast 455 524 28,000 -1,850 Descending Jacksonville Center
Sun 08:34:52 PM 29.2150 -83.5111 151° Southeast 449 517 26,300 -1,750 Descending Jacksonville Center
Sun 08:35:52 PM 29.1108 -83.4439 151° Southeast 439 505 24,500 -1,250 Descending Jacksonville Center
Sun 08:36:52 PM 29.0108 -83.3792 150° Southeast 424 488 23,800 -1,300 Descending Jacksonville Center
Sun 08:37:52 PM 28.9089 -83.3125 150° Southeast 419 482 21,900 -2,000 Descending Jacksonville Center
Sun 08:38:52 PM 28.8153 -83.2528 151° Southeast 403 464 19,800 -2,050 Descending Jacksonville Center
Sun 08:39:52 PM 28.7192 -83.1933 152° Southeast 398 458 17,800 -2,028 Descending Jacksonville Center
Sun 08:41:17 PM 28.6000 -83.1167 151° Southeast 365 420 14,900 -1,945 Descending Tampa TRACON
Sun 08:42:17 PM 28.5167 -83.0667 152° Southeast 350 403 13,100 -1,474 Descending Tampa TRACON
Sun 08:43:11 PM 28.4333 -83.0167 152° Southeast 326 375 12,100 -1,050 Descending Tampa TRACON
Sun 08:44:17 PM 28.3667 -82.9667 147° Southeast 288 331 11,000 -524 Descending Tampa TRACON
Sun 08:45:17 PM 28.2833 -82.9333 161° South 284 327 11,000 -100 Level Tampa TRACON
Sun 08:46:17 PM 28.2167 -82.8833 147° Southeast 287 330 10,800 -900 Descending Tampa TRACON
Sun 08:47:17 PM 28.1500 -82.8500 156° South 275 316 9,200 -1,650 Descending Tampa TRACON
Sun 08:48:17 PM 28.0833 -82.8167 156° South 269 310 7,500 -1,600 Descending Tampa TRACON
Sun 08:49:17 PM 28.0167 -82.8000 168° South 237 273 6,000 -1,450 Descending Tampa TRACON
Sun 08:50:17 PM 27.9500 -82.7667 156° South 216 249 4,600 -1,400 Descending Tampa TRACON

Login

Don't have an account? Register now (free) for customized features, flight alerts, and more!